sensor_id;sensor_type;location;lat;lon;timestamp;temperature;humidity
28763;DHT22;15918;51.270;6.522;2023-05-17T00:00:49;17.00;52.20
28763;DHT22;15918;51.270;6.522;2023-05-17T00:03:15;16.90;52.10
28763;DHT22;15918;51.270;6.522;2023-05-17T00:05:40;17.00;52.10
28763;DHT22;15918;51.270;6.522;2023-05-17T00:08:06;16.90;52.00
28763;DHT22;15918;51.270;6.522;2023-05-17T00:10:32;16.90;52.00
28763;DHT22;15918;51.270;6.522;2023-05-17T00:12:57;16.90;52.10
28763;DHT22;15918;51.270;6.522;2023-05-17T00:15:23;16.80;52.10
28763;DHT22;15918;51.270;6.522;2023-05-17T00:17:48;16.80;52.10
28763;DHT22;15918;51.270;6.522;2023-05-17T00:20:14;16.80;52.10
28763;DHT22;15918;51.270;6.522;2023-05-17T00:22:39;16.80;52.10
28763;DHT22;15918;51.270;6.522;2023-05-17T00:25:07;16.80;52.10
28763;DHT22;15918;51.270;6.522;2023-05-17T00:27:33;16.80;52.20
28763;DHT22;15918;51.270;6.522;2023-05-17T00:29:58;16.70;52.10
28763;DHT22;15918;51.270;6.522;2023-05-17T00:32:24;16.70;52.20
28763;DHT22;15918;51.270;6.522;2023-05-17T00:34:50;16.70;52.20
28763;DHT22;15918;51.270;6.522;2023-05-17T00:37:15;16.70;52.20
28763;DHT22;15918;51.270;6.522;2023-05-17T00:39:41;16.60;52.20
28763;DHT22;15918;51.270;6.522;2023-05-17T00:42:07;16.60;52.30
28763;DHT22;15918;51.270;6.522;2023-05-17T00:44:32;16.60;52.30
28763;DHT22;15918;51.270;6.522;2023-05-17T00:46:58;16.60;52.40
28763;DHT22;15918;51.270;6.522;2023-05-17T00:49:25;16.60;52.50
28763;DHT22;15918;51.270;6.522;2023-05-17T00:51:52;16.70;52.50
28763;DHT22;15918;51.270;6.522;2023-05-17T00:54:18;16.50;52.60
28763;DHT22;15918;51.270;6.522;2023-05-17T00:56:43;16.50;52.70
28763;DHT22;15918;51.270;6.522;2023-05-17T00:59:12;16.50;52.80
28763;DHT22;15918;51.270;6.522;2023-05-17T01:01:40;16.60;52.90
28763;DHT22;15918;51.270;6.522;2023-05-17T01:04:07;16.50;53.00
28763;DHT22;15918;51.270;6.522;2023-05-17T01:06:37;16.50;53.10
28763;DHT22;15918;51.270;6.522;2023-05-17T01:09:04;16.50;53.20
28763;DHT22;15918;51.270;6.522;2023-05-17T01:17:31;16.50;53.30
28763;DHT22;15918;51.270;6.522;2023-05-17T01:20:26;16.40;53.20
28763;DHT22;15918;51.270;6.522;2023-05-17T01:23:29;16.40;53.30
28763;DHT22;15918;51.270;6.522;2023-05-17T01:26:18;16.40;53.30
28763;DHT22;15918;51.270;6.522;2023-05-17T01:28:50;16.40;53.40
28763;DHT22;15918;51.270;6.522;2023-05-17T01:31:17;16.30;53.40
28763;DHT22;15918;51.270;6.522;2023-05-17T01:33:43;16.30;53.50
28763;DHT22;15918;51.270;6.522;2023-05-17T01:36:08;16.30;53.50
28763;DHT22;15918;51.270;6.522;2023-05-17T01:38:34;16.30;53.50
28763;DHT22;15918;51.270;6.522;2023-05-17T01:41:13;16.30;53.60
28763;DHT22;15918;51.270;6.522;2023-05-17T01:43:57;16.30;53.60
28763;DHT22;15918;51.270;6.522;2023-05-17T01:51:57;16.20;53.60
28763;DHT22;15918;51.270;6.522;2023-05-17T01:54:36;16.20;53.60
28763;DHT22;15918;51.270;6.522;2023-05-17T01:57:05;16.20;53.70
28763;DHT22;15918;51.270;6.522;2023-05-17T01:59:32;16.10;53.70
28763;DHT22;15918;51.270;6.522;2023-05-17T02:02:00;16.20;53.80
28763;DHT22;15918;51.270;6.522;2023-05-17T02:04:33;16.10;53.70
28763;DHT22;15918;51.270;6.522;2023-05-17T02:06:59;16.10;53.80
28763;DHT22;15918;51.270;6.522;2023-05-17T02:09:24;16.10;53.70
28763;DHT22;15918;51.270;6.522;2023-05-17T02:11:50;16.10;53.70
28763;DHT22;15918;51.270;6.522;2023-05-17T02:14:15;16.10;53.80
28763;DHT22;15918;51.270;6.522;2023-05-17T02:16:41;16.10;53.80
28763;DHT22;15918;51.270;6.522;2023-05-17T02:19:06;16.00;53.60
28763;DHT22;15918;51.270;6.522;2023-05-17T02:21:33;16.00;53.70
28763;DHT22;15918;51.270;6.522;2023-05-17T02:23:59;16.00;53.60
28763;DHT22;15918;51.270;6.522;2023-05-17T02:26:25;16.00;53.70
28763;DHT22;15918;51.270;6.522;2023-05-17T02:28:52;16.00;53.70
28763;DHT22;15918;51.270;6.522;2023-05-17T02:31:17;16.00;53.80
28763;DHT22;15918;51.270;6.522;2023-05-17T02:33:43;16.00;53.80
28763;DHT22;15918;51.270;6.522;2023-05-17T02:36:09;15.90;53.80
28763;DHT22;15918;51.270;6.522;2023-05-17T02:38:34;15.90;53.90
28763;DHT22;15918;51.270;6.522;2023-05-17T02:41:00;15.90;54.00
28763;DHT22;15918;51.270;6.522;2023-05-17T02:43:25;15.90;54.00
28763;DHT22;15918;51.270;6.522;2023-05-17T02:45:51;15.90;54.10
28763;DHT22;15918;51.270;6.522;2023-05-17T02:48:16;15.80;54.10
28763;DHT22;15918;51.270;6.522;2023-05-17T02:50:42;15.80;54.20
28763;DHT22;15918;51.270;6.522;2023-05-17T02:53:08;15.80;54.20
28763;DHT22;15918;51.270;6.522;2023-05-17T02:55:34;15.80;54.30
28763;DHT22;15918;51.270;6.522;2023-05-17T02:58:00;15.80;54.30
28763;DHT22;15918;51.270;6.522;2023-05-17T03:00:25;15.80;54.40
28763;DHT22;15918;51.270;6.522;2023-05-17T03:02:51;15.80;54.40
28763;DHT22;15918;51.270;6.522;2023-05-17T03:05:16;15.80;54.50
28763;DHT22;15918;51.270;6.522;2023-05-17T03:07:42;15.80;54.50
28763;DHT22;15918;51.270;6.522;2023-05-17T03:10:08;15.70;54.50
28763;DHT22;15918;51.270;6.522;2023-05-17T03:12:33;15.70;54.50
28763;DHT22;15918;51.270;6.522;2023-05-17T03:14:59;15.80;54.60
28763;DHT22;15918;51.270;6.522;2023-05-17T03:17:24;15.70;54.60
28763;DHT22;15918;51.270;6.522;2023-05-17T03:19:50;15.70;54.60
28763;DHT22;15918;51.270;6.522;2023-05-17T03:22:16;15.70;54.60
28763;DHT22;15918;51.270;6.522;2023-05-17T03:24:41;15.70;54.60
28763;DHT22;15918;51.270;6.522;2023-05-17T03:27:07;15.70;54.60
28763;DHT22;15918;51.270;6.522;2023-05-17T03:29:32;15.70;54.60
28763;DHT22;15918;51.270;6.522;2023-05-17T03:31:58;15.60;55.10
28763;DHT22;15918;51.270;6.522;2023-05-17T03:34:24;15.60;54.60
28763;DHT22;15918;51.270;6.522;2023-05-17T03:36:50;15.60;54.60
28763;DHT22;15918;51.270;6.522;2023-05-17T03:39:15;15.60;54.60
28763;DHT22;15918;51.270;6.522;2023-05-17T03:41:41;15.60;54.70
28763;DHT22;15918;51.270;6.522;2023-05-17T03:44:06;15.60;54.80
28763;DHT22;15918;51.270;6.522;2023-05-17T03:46:32;15.60;55.40
28763;DHT22;15918;51.270;6.522;2023-05-17T03:48:58;15.50;54.80
28763;DHT22;15918;51.270;6.522;2023-05-17T03:51:23;15.50;54.90
28763;DHT22;15918;51.270;6.522;2023-05-17T03:53:56;15.50;55.00
28763;DHT22;15918;51.270;6.522;2023-05-17T03:56:22;15.50;55.20
28763;DHT22;15918;51.270;6.522;2023-05-17T03:58:48;15.50;55.30
28763;DHT22;15918;51.270;6.522;2023-05-17T04:01:13;15.50;55.50
28763;DHT22;15918;51.270;6.522;2023-05-17T04:03:39;15.50;55.60
28763;DHT22;15918;51.270;6.522;2023-05-17T04:06:05;15.50;55.70
28763;DHT22;15918;51.270;6.522;2023-05-17T04:08:32;15.50;55.80
28763;DHT22;15918;51.270;6.522;2023-05-17T04:10:58;15.50;56.00
28763;DHT22;15918;51.270;6.522;2023-05-17T04:13:24;15.50;56.10
28763;DHT22;15918;51.270;6.522;2023-05-17T04:15:50;15.50;56.80
28763;DHT22;15918;51.270;6.522;2023-05-17T04:18:15;15.40;56.30
28763;DHT22;15918;51.270;6.522;2023-05-17T04:20:41;15.50;56.40
28763;DHT22;15918;51.270;6.522;2023-05-17T04:23:07;15.40;56.50
28763;DHT22;15918;51.270;6.522;2023-05-17T04:25:33;15.40;56.60
28763;DHT22;15918;51.270;6.522;2023-05-17T04:27:58;15.40;56.70
28763;DHT22;15918;51.270;6.522;2023-05-17T04:30:24;15.40;56.90
28763;DHT22;15918;51.270;6.522;2023-05-17T04:32:50;15.40;56.90
28763;DHT22;15918;51.270;6.522;2023-05-17T04:35:15;15.40;57.10
28763;DHT22;15918;51.270;6.522;2023-05-17T04:37:41;15.40;57.10
28763;DHT22;15918;51.270;6.522;2023-05-17T04:40:07;15.40;57.20
28763;DHT22;15918;51.270;6.522;2023-05-17T04:42:33;15.40;57.20
28763;DHT22;15918;51.270;6.522;2023-05-17T04:44:59;15.40;57.20
28763;DHT22;15918;51.270;6.522;2023-05-17T04:47:24;15.40;57.30
28763;DHT22;15918;51.270;6.522;2023-05-17T04:49:50;15.30;57.20
28763;DHT22;15918;51.270;6.522;2023-05-17T04:52:16;15.40;57.40
28763;DHT22;15918;51.270;6.522;2023-05-17T04:54:41;15.40;57.50
28763;DHT22;15918;51.270;6.522;2023-05-17T04:57:07;15.40;57.40
28763;DHT22;15918;51.270;6.522;2023-05-17T04:59:32;15.40;57.50
28763;DHT22;15918;51.270;6.522;2023-05-17T05:01:58;15.40;57.60
28763;DHT22;15918;51.270;6.522;2023-05-17T05:04:23;15.40;57.70
28763;DHT22;15918;51.270;6.522;2023-05-17T05:06:50;15.40;57.70
28763;DHT22;15918;51.270;6.522;2023-05-17T05:09:16;15.40;57.70
28763;DHT22;15918;51.270;6.522;2023-05-17T05:11:41;15.40;57.80
28763;DHT22;15918;51.270;6.522;2023-05-17T05:14:07;15.40;57.90
28763;DHT22;15918;51.270;6.522;2023-05-17T05:16:32;15.50;58.00
28763;DHT22;15918;51.270;6.522;2023-05-17T05:18:58;15.50;57.90
28763;DHT22;15918;51.270;6.522;2023-05-17T05:21:23;15.50;58.00
28763;DHT22;15918;51.270;6.522;2023-05-17T05:23:49;15.50;58.80
28763;DHT22;15918;51.270;6.522;2023-05-17T05:26:15;15.40;58.10
28763;DHT22;15918;51.270;6.522;2023-05-17T05:28:40;15.50;58.00
28763;DHT22;15918;51.270;6.522;2023-05-17T05:31:06;15.50;58.00
28763;DHT22;15918;51.270;6.522;2023-05-17T05:33:31;15.50;58.00
28763;DHT22;15918;51.270;6.522;2023-05-17T05:35:57;15.50;58.00
28763;DHT22;15918;51.270;6.522;2023-05-17T05:38:23;15.50;58.00
28763;DHT22;15918;51.270;6.522;2023-05-17T05:40:49;15.60;58.00
28763;DHT22;15918;51.270;6.522;2023-05-17T05:43:14;15.60;58.00
28763;DHT22;15918;51.270;6.522;2023-05-17T05:45:40;15.60;58.30
28763;DHT22;15918;51.270;6.522;2023-05-17T05:48:11;15.60;58.30
28763;DHT22;15918;51.270;6.522;2023-05-17T05:50:37;15.70;58.30
28763;DHT22;15918;51.270;6.522;2023-05-17T05:53:02;15.70;58.30
28763;DHT22;15918;51.270;6.522;2023-05-17T05:55:28;15.70;58.40
28763;DHT22;15918;51.270;6.522;2023-05-17T05:57:53;15.70;58.60
28763;DHT22;15918;51.270;6.522;2023-05-17T06:00:19;15.80;58.60
28763;DHT22;15918;51.270;6.522;2023-05-17T06:02:45;15.80;58.40
28763;DHT22;15918;51.270;6.522;2023-05-17T06:05:11;15.80;58.40
28763;DHT22;15918;51.270;6.522;2023-05-17T06:07:36;15.80;58.30
28763;DHT22;15918;51.270;6.522;2023-05-17T06:10:02;15.80;58.50
28763;DHT22;15918;51.270;6.522;2023-05-17T06:12:27;15.90;58.60
28763;DHT22;15918;51.270;6.522;2023-05-17T06:14:53;15.90;58.60
28763;DHT22;15918;51.270;6.522;2023-05-17T06:17:19;15.80;58.50
28763;DHT22;15918;51.270;6.522;2023-05-17T06:19:45;15.90;58.40
28763;DHT22;15918;51.270;6.522;2023-05-17T06:22:13;15.90;58.20
28763;DHT22;15918;51.270;6.522;2023-05-17T06:24:39;15.90;58.30
28763;DHT22;15918;51.270;6.522;2023-05-17T06:27:04;16.00;58.40
28763;DHT22;15918;51.270;6.522;2023-05-17T06:29:31;16.00;58.50
28763;DHT22;15918;51.270;6.522;2023-05-17T06:31:57;16.00;58.40
28763;DHT22;15918;51.270;6.522;2023-05-17T06:34:24;16.10;58.30
28763;DHT22;15918;51.270;6.522;2023-05-17T06:36:50;16.10;58.20
28763;DHT22;15918;51.270;6.522;2023-05-17T06:39:15;16.10;58.20
28763;DHT22;15918;51.270;6.522;2023-05-17T06:41:41;16.10;58.00
28763;DHT22;15918;51.270;6.522;2023-05-17T06:44:07;16.20;57.90
28763;DHT22;15918;51.270;6.522;2023-05-17T06:46:32;16.20;57.90
28763;DHT22;15918;51.270;6.522;2023-05-17T06:48:58;16.30;57.90
28763;DHT22;15918;51.270;6.522;2023-05-17T06:51:24;16.30;57.80
28763;DHT22;15918;51.270;6.522;2023-05-17T06:53:49;16.30;57.50
28763;DHT22;15918;51.270;6.522;2023-05-17T06:56:15;16.40;57.30
28763;DHT22;15918;51.270;6.522;2023-05-17T06:58:41;16.40;57.00
28763;DHT22;15918;51.270;6.522;2023-05-17T07:01:06;16.40;56.60
28763;DHT22;15918;51.270;6.522;2023-05-17T07:03:32;16.50;56.30
28763;DHT22;15918;51.270;6.522;2023-05-17T07:05:58;16.60;56.10
28763;DHT22;15918;51.270;6.522;2023-05-17T07:08:24;16.70;55.90
28763;DHT22;15918;51.270;6.522;2023-05-17T07:10:52;16.60;55.60
28763;DHT22;15918;51.270;6.522;2023-05-17T07:13:18;16.60;55.40
28763;DHT22;15918;51.270;6.522;2023-05-17T07:15:44;16.60;55.30
28763;DHT22;15918;51.270;6.522;2023-05-17T07:18:10;16.70;55.20
28763;DHT22;15918;51.270;6.522;2023-05-17T07:20:35;16.70;55.00
28763;DHT22;15918;51.270;6.522;2023-05-17T07:23:01;16.70;55.00
28763;DHT22;15918;51.270;6.522;2023-05-17T07:25:27;16.80;54.90
28763;DHT22;15918;51.270;6.522;2023-05-17T07:27:52;16.80;54.70
28763;DHT22;15918;51.270;6.522;2023-05-17T07:30:18;16.80;54.40
28763;DHT22;15918;51.270;6.522;2023-05-17T07:32:44;16.90;54.30
28763;DHT22;15918;51.270;6.522;2023-05-17T07:35:09;16.90;54.20
28763;DHT22;15918;51.270;6.522;2023-05-17T07:37:35;17.00;54.10
28763;DHT22;15918;51.270;6.522;2023-05-17T07:40:00;17.00;53.80
28763;DHT22;15918;51.270;6.522;2023-05-17T07:42:26;17.00;53.60
28763;DHT22;15918;51.270;6.522;2023-05-17T07:44:52;17.00;53.30
28763;DHT22;15918;51.270;6.522;2023-05-17T07:47:17;17.00;53.10
28763;DHT22;15918;51.270;6.522;2023-05-17T07:49:43;17.00;53.00
28763;DHT22;15918;51.270;6.522;2023-05-17T07:52:08;17.00;52.90
28763;DHT22;15918;51.270;6.522;2023-05-17T07:54:34;17.00;52.90
28763;DHT22;15918;51.270;6.522;2023-05-17T07:57:00;17.00;52.80
28763;DHT22;15918;51.270;6.522;2023-05-17T07:59:25;17.00;52.70
28763;DHT22;15918;51.270;6.522;2023-05-17T08:01:52;17.00;52.60
28763;DHT22;15918;51.270;6.522;2023-05-17T08:04:17;17.10;52.60
28763;DHT22;15918;51.270;6.522;2023-05-17T08:06:43;17.00;52.50
28763;DHT22;15918;51.270;6.522;2023-05-17T08:09:13;17.00;52.40
28763;DHT22;15918;51.270;6.522;2023-05-17T08:11:40;17.00;52.90
28763;DHT22;15918;51.270;6.522;2023-05-17T08:14:11;17.10;52.40
28763;DHT22;15918;51.270;6.522;2023-05-17T08:16:37;17.00;52.30
28763;DHT22;15918;51.270;6.522;2023-05-17T08:19:03;17.10;52.30
28763;DHT22;15918;51.270;6.522;2023-05-17T08:21:28;17.10;52.10
28763;DHT22;15918;51.270;6.522;2023-05-17T08:23:54;17.10;52.10
28763;DHT22;15918;51.270;6.522;2023-05-17T08:26:19;17.10;52.00
28763;DHT22;15918;51.270;6.522;2023-05-17T08:28:45;17.10;52.00
28763;DHT22;15918;51.270;6.522;2023-05-17T08:31:11;17.10;52.00
28763;DHT22;15918;51.270;6.522;2023-05-17T08:33:36;17.10;51.80
28763;DHT22;15918;51.270;6.522;2023-05-17T08:36:03;17.10;51.60
28763;DHT22;15918;51.270;6.522;2023-05-17T08:38:32;17.10;51.40
28763;DHT22;15918;51.270;6.522;2023-05-17T08:40:59;17.10;51.30
28763;DHT22;15918;51.270;6.522;2023-05-17T08:43:27;17.10;51.20
28763;DHT22;15918;51.270;6.522;2023-05-17T08:45:53;17.10;51.10
28763;DHT22;15918;51.270;6.522;2023-05-17T08:48:21;17.20;51.00
28763;DHT22;15918;51.270;6.522;2023-05-17T08:50:49;17.10;50.90
28763;DHT22;15918;51.270;6.522;2023-05-17T08:53:16;17.10;50.80
28763;DHT22;15918;51.270;6.522;2023-05-17T08:55:44;17.10;50.70
28763;DHT22;15918;51.270;6.522;2023-05-17T08:58:12;17.10;50.60
28763;DHT22;15918;51.270;6.522;2023-05-17T09:00:39;17.10;50.50
28763;DHT22;15918;51.270;6.522;2023-05-17T09:03:04;17.10;50.40
28763;DHT22;15918;51.270;6.522;2023-05-17T09:05:30;17.10;50.30
28763;DHT22;15918;51.270;6.522;2023-05-17T09:07:56;17.20;50.30
28763;DHT22;15918;51.270;6.522;2023-05-17T09:10:23;17.20;50.30
28763;DHT22;15918;51.270;6.522;2023-05-17T09:12:49;17.10;50.20
28763;DHT22;15918;51.270;6.522;2023-05-17T09:15:19;17.10;50.10
28763;DHT22;15918;51.270;6.522;2023-05-17T09:17:52;17.20;50.10
28763;DHT22;15918;51.270;6.522;2023-05-17T09:20:25;17.20;50.00
28763;DHT22;15918;51.270;6.522;2023-05-17T09:23:01;17.30;50.00
28763;DHT22;15918;51.270;6.522;2023-05-17T09:25:29;17.20;49.90
28763;DHT22;15918;51.270;6.522;2023-05-17T09:28:00;17.20;50.30
28763;DHT22;15918;51.270;6.522;2023-05-17T09:30:29;17.30;49.60
28763;DHT22;15918;51.270;6.522;2023-05-17T09:32:55;17.30;49.60
28763;DHT22;15918;51.270;6.522;2023-05-17T09:35:30;17.40;49.40
28763;DHT22;15918;51.270;6.522;2023-05-17T09:38:10;17.40;49.10
28763;DHT22;15918;51.270;6.522;2023-05-17T09:40:41;17.40;48.80
28763;DHT22;15918;51.270;6.522;2023-05-17T09:43:07;17.50;48.80
28763;DHT22;15918;51.270;6.522;2023-05-17T09:45:34;17.40;48.60
28763;DHT22;15918;51.270;6.522;2023-05-17T09:48:26;17.50;48.50
28763;DHT22;15918;51.270;6.522;2023-05-17T09:50:53;17.50;48.90
28763;DHT22;15918;51.270;6.522;2023-05-17T09:53:28;17.50;48.40
28763;DHT22;15918;51.270;6.522;2023-05-17T09:55:55;17.50;48.20
28763;DHT22;15918;51.270;6.522;2023-05-17T09:58:21;17.60;48.40
28763;DHT22;15918;51.270;6.522;2023-05-17T10:00:52;17.60;48.30
28763;DHT22;15918;51.270;6.522;2023-05-17T10:03:21;17.60;48.30
28763;DHT22;15918;51.270;6.522;2023-05-17T10:05:50;17.70;48.30
28763;DHT22;15918;51.270;6.522;2023-05-17T10:08:21;17.70;48.10
28763;DHT22;15918;51.270;6.522;2023-05-17T10:10:48;17.70;48.10
28763;DHT22;15918;51.270;6.522;2023-05-17T10:13:17;17.70;48.00
28763;DHT22;15918;51.270;6.522;2023-05-17T10:15:47;17.80;48.00
28763;DHT22;15918;51.270;6.522;2023-05-17T10:18:13;17.80;47.50
28763;DHT22;15918;51.270;6.522;2023-05-17T10:20:40;17.80;47.40
28763;DHT22;15918;51.270;6.522;2023-05-17T10:23:07;17.80;47.40
28763;DHT22;15918;51.270;6.522;2023-05-17T10:25:34;17.80;47.50
28763;DHT22;15918;51.270;6.522;2023-05-17T10:28:00;17.80;47.50
28763;DHT22;15918;51.270;6.522;2023-05-17T10:30:27;17.90;47.60
28763;DHT22;15918;51.270;6.522;2023-05-17T10:32:53;17.90;47.80
28763;DHT22;15918;51.270;6.522;2023-05-17T10:35:20;17.90;48.00
28763;DHT22;15918;51.270;6.522;2023-05-17T10:37:45;17.90;48.10
28763;DHT22;15918;51.270;6.522;2023-05-17T10:40:11;18.00;48.10
28763;DHT22;15918;51.270;6.522;2023-05-17T10:42:50;18.10;48.20
28763;DHT22;15918;51.270;6.522;2023-05-17T10:45:19;18.10;48.20
28763;DHT22;15918;51.270;6.522;2023-05-17T10:47:46;18.10;48.20
28763;DHT22;15918;51.270;6.522;2023-05-17T10:50:13;18.10;48.20
28763;DHT22;15918;51.270;6.522;2023-05-17T10:52:46;18.20;48.20
28763;DHT22;15918;51.270;6.522;2023-05-17T10:55:11;18.10;48.20
28763;DHT22;15918;51.270;6.522;2023-05-17T10:57:37;18.20;48.30
28763;DHT22;15918;51.270;6.522;2023-05-17T11:00:04;18.20;48.30
28763;DHT22;15918;51.270;6.522;2023-05-17T11:02:33;18.20;48.20
28763;DHT22;15918;51.270;6.522;2023-05-17T11:04:58;18.30;48.20
28763;DHT22;15918;51.270;6.522;2023-05-17T11:07:31;18.30;48.00
28763;DHT22;15918;51.270;6.522;2023-05-17T11:10:10;18.30;47.60
28763;DHT22;15918;51.270;6.522;2023-05-17T11:12:38;18.30;47.40
28763;DHT22;15918;51.270;6.522;2023-05-17T11:15:12;18.30;47.30
28763;DHT22;15918;51.270;6.522;2023-05-17T11:25:23;18.40;47.10
28763;DHT22;15918;51.270;6.522;2023-05-17T11:27:50;18.40;47.00
28763;DHT22;15918;51.270;6.522;2023-05-17T11:30:25;18.40;46.90
28763;DHT22;15918;51.270;6.522;2023-05-17T11:33:03;18.40;46.70
28763;DHT22;15918;51.270;6.522;2023-05-17T11:38:21;18.50;46.00
28763;DHT22;15918;51.270;6.522;2023-05-17T11:40:54;18.50;45.80
28763;DHT22;15918;51.270;6.522;2023-05-17T11:43:21;18.50;45.80
28763;DHT22;15918;51.270;6.522;2023-05-17T11:45:52;18.50;45.50
28763;DHT22;15918;51.270;6.522;2023-05-17T11:48:20;18.50;45.20
28763;DHT22;15918;51.270;6.522;2023-05-17T11:50:48;18.50;45.20
28763;DHT22;15918;51.270;6.522;2023-05-17T11:53:14;18.50;45.30
28763;DHT22;15918;51.270;6.522;2023-05-17T11:55:45;18.50;45.40
28763;DHT22;15918;51.270;6.522;2023-05-17T11:58:14;18.50;45.10
28763;DHT22;15918;51.270;6.522;2023-05-17T12:00:41;18.60;45.10
28763;DHT22;15918;51.270;6.522;2023-05-17T12:03:34;18.60;45.30
28763;DHT22;15918;51.270;6.522;2023-05-17T12:08:27;18.60;45.40
28763;DHT22;15918;51.270;6.522;2023-05-17T12:10:52;18.70;45.30
28763;DHT22;15918;51.270;6.522;2023-05-17T12:13:20;18.60;45.40
28763;DHT22;15918;51.270;6.522;2023-05-17T12:16:10;18.70;45.10
28763;DHT22;15918;51.270;6.522;2023-05-17T12:18:39;18.70;44.70
28763;DHT22;15918;51.270;6.522;2023-05-17T12:21:06;18.70;44.90
28763;DHT22;15918;51.270;6.522;2023-05-17T12:23:37;18.70;45.00
28763;DHT22;15918;51.270;6.522;2023-05-17T12:28:30;18.80;45.30
28763;DHT22;15918;51.270;6.522;2023-05-17T12:30:56;18.80;45.30
28763;DHT22;15918;51.270;6.522;2023-05-17T12:33:24;18.80;45.20
28763;DHT22;15918;51.270;6.522;2023-05-17T12:35:50;18.80;45.10
28763;DHT22;15918;51.270;6.522;2023-05-17T12:38:17;18.80;44.90
28763;DHT22;15918;51.270;6.522;2023-05-17T12:40:43;18.80;45.10
28763;DHT22;15918;51.270;6.522;2023-05-17T12:43:08;18.90;44.80
28763;DHT22;15918;51.270;6.522;2023-05-17T12:45:34;18.80;44.50
28763;DHT22;15918;51.270;6.522;2023-05-17T12:48:00;18.90;44.50
28763;DHT22;15918;51.270;6.522;2023-05-17T12:50:30;18.90;44.40
28763;DHT22;15918;51.270;6.522;2023-05-17T12:52:56;18.90;44.20
28763;DHT22;15918;51.270;6.522;2023-05-17T12:55:22;18.90;44.20
28763;DHT22;15918;51.270;6.522;2023-05-17T12:57:52;18.90;44.20
28763;DHT22;15918;51.270;6.522;2023-05-17T13:00:19;19.00;44.20
28763;DHT22;15918;51.270;6.522;2023-05-17T13:02:45;19.00;44.00
28763;DHT22;15918;51.270;6.522;2023-05-17T13:05:18;19.00;44.00
28763;DHT22;15918;51.270;6.522;2023-05-17T13:07:46;19.00;43.80
28763;DHT22;15918;51.270;6.522;2023-05-17T13:10:22;19.00;43.80
28763;DHT22;15918;51.270;6.522;2023-05-17T13:12:59;19.00;43.70
28763;DHT22;15918;51.270;6.522;2023-05-17T13:15:32;19.00;43.60
28763;DHT22;15918;51.270;6.522;2023-05-17T13:17:58;19.00;43.40
28763;DHT22;15918;51.270;6.522;2023-05-17T13:20:25;19.00;43.60
28763;DHT22;15918;51.270;6.522;2023-05-17T13:22:51;19.00;43.40
28763;DHT22;15918;51.270;6.522;2023-05-17T13:25:17;19.10;43.60
28763;DHT22;15918;51.270;6.522;2023-05-17T13:27:44;19.10;43.50
28763;DHT22;15918;51.270;6.522;2023-05-17T13:30:15;19.10;43.60
28763;DHT22;15918;51.270;6.522;2023-05-17T13:32:41;19.10;43.60
28763;DHT22;15918;51.270;6.522;2023-05-17T13:35:07;19.10;43.50
28763;DHT22;15918;51.270;6.522;2023-05-17T13:37:33;19.10;43.50
28763;DHT22;15918;51.270;6.522;2023-05-17T13:40:00;19.10;43.40
28763;DHT22;15918;51.270;6.522;2023-05-17T13:42:25;19.10;43.40
28763;DHT22;15918;51.270;6.522;2023-05-17T13:44:51;19.10;43.30
28763;DHT22;15918;51.270;6.522;2023-05-17T13:47:16;19.10;43.20
28763;DHT22;15918;51.270;6.522;2023-05-17T13:49:42;19.10;43.20
28763;DHT22;15918;51.270;6.522;2023-05-17T13:52:08;19.10;43.00
28763;DHT22;15918;51.270;6.522;2023-05-17T13:54:34;19.10;43.10
28763;DHT22;15918;51.270;6.522;2023-05-17T13:57:00;19.20;43.40
28763;DHT22;15918;51.270;6.522;2023-05-17T13:59:26;19.10;43.30
28763;DHT22;15918;51.270;6.522;2023-05-17T14:01:52;19.10;43.10
28763;DHT22;15918;51.270;6.522;2023-05-17T14:04:18;19.10;43.00
28763;DHT22;15918;51.270;6.522;2023-05-17T14:06:45;19.10;43.00
28763;DHT22;15918;51.270;6.522;2023-05-17T14:09:11;19.10;42.90
28763;DHT22;15918;51.270;6.522;2023-05-17T14:11:38;19.10;43.10
28763;DHT22;15918;51.270;6.522;2023-05-17T14:14:03;19.10;43.10
28763;DHT22;15918;51.270;6.522;2023-05-17T14:16:29;19.00;42.80
28763;DHT22;15918;51.270;6.522;2023-05-17T14:18:55;19.00;42.60
28763;DHT22;15918;51.270;6.522;2023-05-17T14:21:21;19.00;42.60
28763;DHT22;15918;51.270;6.522;2023-05-17T14:23:46;19.00;42.50
28763;DHT22;15918;51.270;6.522;2023-05-17T14:26:12;19.10;42.70
28763;DHT22;15918;51.270;6.522;2023-05-17T14:28:38;19.00;42.60
28763;DHT22;15918;51.270;6.522;2023-05-17T14:31:05;19.00;42.70
28763;DHT22;15918;51.270;6.522;2023-05-17T14:33:31;19.10;42.90
28763;DHT22;15918;51.270;6.522;2023-05-17T14:35:56;19.00;43.00
28763;DHT22;15918;51.270;6.522;2023-05-17T14:38:22;19.00;43.00
28763;DHT22;15918;51.270;6.522;2023-05-17T14:40:47;19.00;43.10
28763;DHT22;15918;51.270;6.522;2023-05-17T14:43:13;19.00;43.10
28763;DHT22;15918;51.270;6.522;2023-05-17T14:45:39;19.00;42.90
28763;DHT22;15918;51.270;6.522;2023-05-17T14:48:04;19.00;43.00
28763;DHT22;15918;51.270;6.522;2023-05-17T14:50:30;19.00;43.00
28763;DHT22;15918;51.270;6.522;2023-05-17T14:52:57;18.90;43.00
28763;DHT22;15918;51.270;6.522;2023-05-17T14:55:22;18.90;43.10
28763;DHT22;15918;51.270;6.522;2023-05-17T14:57:51;18.90;43.10
28763;DHT22;15918;51.270;6.522;2023-05-17T15:00:18;19.00;43.00
28763;DHT22;15918;51.270;6.522;2023-05-17T15:02:44;18.90;43.00
28763;DHT22;15918;51.270;6.522;2023-05-17T15:05:10;18.80;42.80
28763;DHT22;15918;51.270;6.522;2023-05-17T15:07:36;18.80;42.80
28763;DHT22;15918;51.270;6.522;2023-05-17T15:10:05;18.80;42.80
28763;DHT22;15918;51.270;6.522;2023-05-17T15:12:31;18.90;43.50
28763;DHT22;15918;51.270;6.522;2023-05-17T15:14:57;18.80;43.00
28763;DHT22;15918;51.270;6.522;2023-05-17T15:17:23;18.80;43.00
28763;DHT22;15918;51.270;6.522;2023-05-17T15:19:49;18.80;43.10
28763;DHT22;15918;51.270;6.522;2023-05-17T15:22:15;18.90;43.10
28763;DHT22;15918;51.270;6.522;2023-05-17T15:24:43;18.80;43.10
28763;DHT22;15918;51.270;6.522;2023-05-17T15:27:08;18.80;43.20
28763;DHT22;15918;51.270;6.522;2023-05-17T15:29:37;18.90;43.30
28763;DHT22;15918;51.270;6.522;2023-05-17T15:32:05;18.80;43.20
28763;DHT22;15918;51.270;6.522;2023-05-17T15:34:31;18.80;43.20
28763;DHT22;15918;51.270;6.522;2023-05-17T15:36:57;18.80;43.30
28763;DHT22;15918;51.270;6.522;2023-05-17T15:39:22;18.70;43.40
28763;DHT22;15918;51.270;6.522;2023-05-17T15:41:48;18.80;43.50
28763;DHT22;15918;51.270;6.522;2023-05-17T15:44:14;18.70;43.50
28763;DHT22;15918;51.270;6.522;2023-05-17T15:46:39;18.70;43.40
28763;DHT22;15918;51.270;6.522;2023-05-17T15:49:05;18.80;43.30
28763;DHT22;15918;51.270;6.522;2023-05-17T15:51:31;18.70;43.30
28763;DHT22;15918;51.270;6.522;2023-05-17T15:53:57;18.70;43.30
28763;DHT22;15918;51.270;6.522;2023-05-17T15:56:22;18.70;43.30